Terminal Aerodrome Forecast
Issued by NWS

Home | Current Version | Previous Version | Text Only | Print | Product List | Glossary On
Versions: 1 2 3 4 5 6 7 8 9 10 11 12 13 14
000
FTUS46 KSEW 212300
TAFBFI
TAF
KBFI 212334Z 2200/2224 17005KT P6SM SKC
     FM220700 24005KT P6SM SCT050
     FM221200 VRB03KT P6SM BKN025
     FM221700 31006KT P6SM SCT040
     FM222000 33006KT P6SM SCT250=

USA.gov is the U.S. government's official web portal to all federal, state and local government web resources and services.